Otley, Iowa
Current Conditions -  °F | °C
As of 12:15 AM on Sunday 21 Dec 2014 (Local Time) from KPEA Reporting Station
Haze Haze  
Wind Chill: 29°   Ceiling: 300
Heat Index: 36°   Visibility: 1.7mi
Dew Point: 36°   Wind: 8mph
Humidity: 99%   Direction: 160°SSE
Pressure: 30.11"   Gusts: NA
Location:  41.46°N, 93.04°W
Report Text: KPEA 210615Z AUTO 16007KT 1 3/4SM BR OVC003 02/02 A3011 RMK AO2 T00210020
Loading
Personal Weather Stations






























Interactive Weather Map New forecast layout! Learn more

10-Day Weather Forecast

Advertisements
Track Severe Weather on mobile